METAR Data
IDs: Format: Raw Decoded Include TAF

Data at: 1512 UTC 10 Aug 2022

KTRK 101445Z 00000KT 10SM SCT090 13/07 A3026
KTRK 101345Z 00000KT 10SM SCT090 08/05 A3025
KTRK 101320Z AUTO 00000KT 10SM OVC060 09/06 A3025 RMK AO2
KTRK 101301Z AUTO 00000KT 10SM OVC060 09/06 A3025 RMK AO2
KTRK 101243Z AUTO 00000KT 10SM OVC060 08/04 A3024 RMK AO2
KTRK 101221Z AUTO 00000KT 10SM OVC060 09/06 A3023 RMK AO2
KTRK 101203Z AUTO 00000KT 10SM BKN060 09/05 A3023 RMK AO2
KTRK 101140Z AUTO 00000KT 10SM BKN060 10/06 A3023 RMK AO2
KTRK 101120Z AUTO 00000KT 10SM OVC060 10/06 A3023 RMK AO2
KTRK 101103Z AUTO 00000KT 10SM BKN060 09/06 A3023 RMK AO2
KTRK 101042Z AUTO 00000KT 10SM SCT060 09/06 A3023 RMK AO2
KTRK 101020Z AUTO 00000KT 10SM CLR 09/06 A3023 RMK AO2
KTRK 101001Z AUTO 00000KT 10SM CLR 09/06 A3023 RMK AO2
KTRK 100940Z AUTO 00000KT 10SM CLR 11/06 A3023 RMK AO2
KTRK 100923Z AUTO 00000KT 10SM SCT055 10/06 A3023 RMK AO2
KTRK 100900Z AUTO 00000KT 10SM BKN055 09/06 A3023 RMK AO2
KTRK 100842Z AUTO 15004KT 10SM OVC055 10/06 A3023 RMK AO2
KTRK 100821Z AUTO 00000KT 10SM SCT055 11/06 A3023 RMK AO2
KTRK 100803Z AUTO 00000KT 10SM CLR 12/06 A3023 RMK AO2
KTRK 100740Z AUTO 00000KT 10SM CLR 13/07 A3023 RMK AO2 LTG DSNT SE
KTRK 100720Z AUTO 00000KT 10SM CLR 13/06 A3023 RMK AO2
KTRK 100702Z AUTO 00000KT 10SM CLR 12/06 A3023 RMK AO2
KTRK 100643Z AUTO 15003KT 10SM CLR 13/07 A3023 RMK AO2
KTRK 100621Z AUTO 00000KT 10SM CLR 14/07 A3023 RMK AO2
KTRK 100600Z AUTO 00000KT 10SM CLR 14/07 A3023 RMK AO2 LTG DSNT E
KTRK 100541Z AUTO 02003KT 10SM CLR 15/06 A3023 RMK AO2
KTRK 100521Z AUTO 31003KT 10SM CLR 17/06 A3023 RMK AO2
KTRK 100500Z AUTO 34003KT 10SM CLR 18/06 A3022 RMK AO2
KTRK 100443Z AUTO 00000KT 10SM CLR 17/07 A3022 RMK AO2 LTG DSNT SE
KTRK 100420Z AUTO 23005KT 10SM CLR 18/06 A3021 RMK AO2 LTG DSNT SE
KTRK 100403Z AUTO 23010KT 10SM CLR 18/07 A3020 RMK AO2 LTG DSNT SE
KTRK 100340Z AUTO 25010KT 10SM CLR 19/07 A3020 RMK AO2 LTG DSNT SE
KTRK 100321Z AUTO 24011KT 10SM SCT075 19/08 A3020 RMK AO2 LTG DSNT SE
KTRK 100300Z AUTO 24010KT 10SM VCTS SCT075 20/08 A3019 RMK AO2
KTRK 100240Z AUTO 23012KT 10SM CLR 21/08 A3019 RMK AO2
KTRK 100220Z AUTO 23013G18KT 10SM CLR 22/08 A3019 RMK AO2
KTRK 100200Z AUTO 23011KT 10SM BKN100 22/08 A3019 RMK AO2
KTRK 100140Z AUTO 25012KT 10SM OVC100 23/08 A3019 RMK AO2
KTRK 100122Z AUTO 24012KT 10SM BKN100 23/08 A3019 RMK AO2 LTG DSNT E
KTRK 100045Z 23013G16KT 10SM SCT100 24/09 A3019
KTRK 092250Z 20017G21KT 10SM OVC120 27/09 A3017
KTRK 092145Z 21009G20KT 10SM SCT070 BKN100 28/09 A3017
KTRK 092045Z 24010G19KT 190V250 10SM SCT080 OVC110 26/09 A3017
KTRK 091945Z 23010G15KT 10SM BKN070 BKN100 BKN120 26/08 A3019
KTRK 091845Z 00000KT 10SM SCT070 SCT090 24/09 A3019
KTRK 091745Z 00000KT 10SM SCT090 23/09 A3021
KTRK 091645Z 00000KT 10SM OVC090 19/10 A3022
KTRK 091545Z 00000KT 10SM OVC100 17/11 A3022
KTRK 091445Z 00000KT 10SM SCT085 OVC110 13/10 A3022
KTRK 091345Z 00000KT 10SM OVC100 11/09 A3023
KTRK 091321Z AUTO 00000KT 10SM BKN100 BKN120 11/09 A3022 RMK AO2
KTRK 091300Z AUTO 00000KT 10SM BKN100 BKN120 11/09 A3022 RMK AO2
KTRK 091240Z AUTO 00000KT 10SM BKN100 09/09 A3022 RMK AO2
KTRK 091220Z AUTO 00000KT 10SM SCT100 10/09 A3022 RMK AO2
KTRK 091200Z AUTO 00000KT 10SM CLR 10/09 A3022 RMK AO2
KTRK 091142Z AUTO 00000KT 10SM CLR 11/10 A3022 RMK AO2
KTRK 091122Z AUTO 00000KT 10SM CLR 11/09 A3022 RMK AO2
KTRK 091100Z AUTO 00000KT 10SM CLR 11/09 A3021 RMK AO2
KTRK 091041Z AUTO 00000KT 10SM CLR 12/09 A3021 RMK AO2
KTRK 091023Z AUTO 00000KT 10SM CLR 11/09 A3022 RMK AO2
KTRK 091000Z AUTO 00000KT 10SM CLR 11/09 A3022 RMK AO2
KTRK 090942Z AUTO 00000KT 10SM CLR 12/09 A3022 RMK AO2
KTRK 090922Z AUTO 00000KT 10SM CLR 12/09 A3022 RMK AO2 LTG DSNT E
KTRK 090900Z AUTO 00000KT 10SM CLR 12/09 A3022 RMK AO2
KTRK 090840Z AUTO 00000KT 10SM CLR 12/09 A3023 RMK AO2
KTRK 090820Z AUTO 00000KT 10SM CLR 12/09 A3023 RMK AO2
KTRK 090800Z AUTO 00000KT 10SM CLR 13/09 A3023 RMK AO2
KTRK 090743Z AUTO 00000KT 10SM CLR 14/09 A3023 RMK AO2
KTRK 090720Z AUTO 00000KT 10SM CLR 14/10 A3024 RMK AO2
KTRK 090700Z AUTO 00000KT 10SM CLR 14/10 A3023 RMK AO2
KTRK 090643Z AUTO 00000KT 10SM CLR 14/09 A3023 RMK AO2
KTRK 090620Z AUTO 00000KT 10SM CLR 16/10 A3023 RMK AO2
KTRK 090600Z AUTO 00000KT 10SM SCT100 15/09 A3023 RMK AO2 LTG DSNT SE
KTRK 090540Z AUTO 00000KT 10SM SCT110 16/09 A3024 RMK AO2
KTRK 090520Z AUTO 00000KT 10SM SCT110 16/09 A3024 RMK AO2
KTRK 090500Z AUTO 00000KT 10SM CLR 17/09 A3024 RMK AO2 LTG DSNT SE
KTRK 090440Z AUTO 13003KT 10SM CLR 17/09 A3023 RMK AO2
KTRK 090420Z AUTO 00000KT 10SM CLR 19/09 A3023 RMK AO2
KTRK 090400Z AUTO 18004KT 10SM CLR 21/08 A3023 RMK AO2
KTRK 090340Z AUTO 33004KT 10SM CLR 21/08 A3022 RMK AO2
KTRK 090320Z AUTO 34004KT 10SM CLR 22/09 A3022 RMK AO2